sensor_id;sensor_type;location;lat;lon;timestamp;P1;durP1;ratioP1;P2;durP2;ratioP2
59830;SDS011;45711;50.108;13.712;2023-11-22T00:01:06;1.70;;;1.13;;
59830;SDS011;45711;50.108;13.712;2023-11-22T00:03:32;2.45;;;1.33;;
59830;SDS011;45711;50.108;13.712;2023-11-22T00:05:57;2.25;;;1.10;;
59830;SDS011;45711;50.108;13.712;2023-11-22T00:08:23;2.10;;;1.27;;
59830;SDS011;45711;50.108;13.712;2023-11-22T00:10:52;1.88;;;1.00;;
59830;SDS011;45711;50.108;13.712;2023-11-22T00:13:19;1.83;;;0.88;;
59830;SDS011;45711;50.108;13.712;2023-11-22T00:15:45;1.40;;;0.85;;
59830;SDS011;45711;50.108;13.712;2023-11-22T00:18:10;2.22;;;1.17;;
59830;SDS011;45711;50.108;13.712;2023-11-22T00:20:36;3.47;;;1.20;;
59830;SDS011;45711;50.108;13.712;2023-11-22T00:23:02;1.50;;;1.10;;
59830;SDS011;45711;50.108;13.712;2023-11-22T00:25:28;1.65;;;1.00;;
59830;SDS011;45711;50.108;13.712;2023-11-22T00:27:54;1.77;;;1.00;;
59830;SDS011;45711;50.108;13.712;2023-11-22T00:30:21;2.42;;;1.13;;
59830;SDS011;45711;50.108;13.712;2023-11-22T00:32:48;1.45;;;1.00;;
59830;SDS011;45711;50.108;13.712;2023-11-22T00:35:14;1.80;;;1.00;;
59830;SDS011;45711;50.108;13.712;2023-11-22T00:37:40;1.60;;;0.90;;
59830;SDS011;45711;50.108;13.712;2023-11-22T00:40:06;1.73;;;1.10;;
59830;SDS011;45711;50.108;13.712;2023-11-22T00:42:35;1.98;;;1.00;;
59830;SDS011;45711;50.108;13.712;2023-11-22T00:45:02;1.30;;;1.10;;
59830;SDS011;45711;50.108;13.712;2023-11-22T00:47:32;1.30;;;0.98;;
59830;SDS011;45711;50.108;13.712;2023-11-22T00:49:57;2.58;;;1.40;;
59830;SDS011;45711;50.108;13.712;2023-11-22T00:52:23;2.58;;;1.20;;
59830;SDS011;45711;50.108;13.712;2023-11-22T00:54:49;1.92;;;1.38;;
59830;SDS011;45711;50.108;13.712;2023-11-22T00:57:15;2.10;;;1.30;;
59830;SDS011;45711;50.108;13.712;2023-11-22T00:59:40;1.77;;;1.38;;
59830;SDS011;45711;50.108;13.712;2023-11-22T01:02:06;1.77;;;1.30;;
59830;SDS011;45711;50.108;13.712;2023-11-22T01:04:35;3.70;;;1.50;;
59830;SDS011;45711;50.108;13.712;2023-11-22T01:07:02;1.98;;;1.20;;
59830;SDS011;45711;50.108;13.712;2023-11-22T01:09:29;1.83;;;1.05;;
59830;SDS011;45711;50.108;13.712;2023-11-22T01:11:57;2.08;;;1.42;;
59830;SDS011;45711;50.108;13.712;2023-11-22T01:14:23;2.08;;;1.52;;
59830;SDS011;45711;50.108;13.712;2023-11-22T01:16:49;2.22;;;1.40;;
59830;SDS011;45711;50.108;13.712;2023-11-22T01:19:14;2.08;;;1.48;;
59830;SDS011;45711;50.108;13.712;2023-11-22T01:21:41;2.58;;;1.20;;
59830;SDS011;45711;50.108;13.712;2023-11-22T01:24:07;2.95;;;1.80;;
59830;SDS011;45711;50.108;13.712;2023-11-22T01:26:33;1.58;;;1.40;;
59830;SDS011;45711;50.108;13.712;2023-11-22T01:28:59;2.25;;;1.75;;
59830;SDS011;45711;50.108;13.712;2023-11-22T01:31:25;1.55;;;1.20;;
59830;SDS011;45711;50.108;13.712;2023-11-22T01:33:52;1.98;;;1.40;;
59830;SDS011;45711;50.108;13.712;2023-11-22T01:36:18;2.83;;;1.60;;
59830;SDS011;45711;50.108;13.712;2023-11-22T01:38:45;3.63;;;1.67;;
59830;SDS011;45711;50.108;13.712;2023-11-22T01:41:11;2.70;;;1.77;;
59830;SDS011;45711;50.108;13.712;2023-11-22T01:43:38;3.67;;;1.92;;
59830;SDS011;45711;50.108;13.712;2023-11-22T01:46:07;3.03;;;1.70;;
59830;SDS011;45711;50.108;13.712;2023-11-22T01:48:34;2.95;;;1.80;;
59830;SDS011;45711;50.108;13.712;2023-11-22T01:51:01;2.70;;;1.70;;
59830;SDS011;45711;50.108;13.712;2023-11-22T01:53:27;3.50;;;1.70;;
59830;SDS011;45711;50.108;13.712;2023-11-22T01:55:54;2.13;;;1.63;;
59830;SDS011;45711;50.108;13.712;2023-11-22T01:58:21;2.70;;;2.05;;
59830;SDS011;45711;50.108;13.712;2023-11-22T02:00:48;3.60;;;2.00;;
59830;SDS011;45711;50.108;13.712;2023-11-22T02:03:15;3.50;;;1.92;;
59830;SDS011;45711;50.108;13.712;2023-11-22T02:05:41;4.45;;;2.70;;
59830;SDS011;45711;50.108;13.712;2023-11-22T02:08:08;2.42;;;1.60;;
59830;SDS011;45711;50.108;13.712;2023-11-22T02:10:34;2.53;;;1.80;;
59830;SDS011;45711;50.108;13.712;2023-11-22T02:13:03;3.10;;;2.00;;
59830;SDS011;45711;50.108;13.712;2023-11-22T02:15:30;3.50;;;2.22;;
59830;SDS011;45711;50.108;13.712;2023-11-22T02:17:55;2.53;;;2.20;;
59830;SDS011;45711;50.108;13.712;2023-11-22T02:20:22;4.13;;;2.47;;
59830;SDS011;45711;50.108;13.712;2023-11-22T02:22:47;5.07;;;2.50;;
59830;SDS011;45711;50.108;13.712;2023-11-22T02:25:15;2.35;;;1.73;;
59830;SDS011;45711;50.108;13.712;2023-11-22T02:27:40;4.00;;;2.63;;
59830;SDS011;45711;50.108;13.712;2023-11-22T02:30:07;3.38;;;2.50;;
59830;SDS011;45711;50.108;13.712;2023-11-22T02:32:34;7.05;;;2.53;;
59830;SDS011;45711;50.108;13.712;2023-11-22T02:35:00;3.63;;;2.50;;
59830;SDS011;45711;50.108;13.712;2023-11-22T02:37:29;2.20;;;1.90;;
59830;SDS011;45711;50.108;13.712;2023-11-22T02:39:56;4.18;;;2.50;;
59830;SDS011;45711;50.108;13.712;2023-11-22T02:42:30;5.30;;;2.25;;
59830;SDS011;45711;50.108;13.712;2023-11-22T02:44:56;5.40;;;2.30;;
59830;SDS011;45711;50.108;13.712;2023-11-22T02:47:22;3.30;;;2.05;;
59830;SDS011;45711;50.108;13.712;2023-11-22T02:49:48;4.05;;;2.50;;
59830;SDS011;45711;50.108;13.712;2023-11-22T02:52:14;3.10;;;2.10;;
59830;SDS011;45711;50.108;13.712;2023-11-22T02:54:42;3.45;;;2.40;;
59830;SDS011;45711;50.108;13.712;2023-11-22T02:57:08;5.30;;;2.45;;
59830;SDS011;45711;50.108;13.712;2023-11-22T02:59:36;3.35;;;2.10;;
59830;SDS011;45711;50.108;13.712;2023-11-22T03:02:01;4.25;;;2.45;;
59830;SDS011;45711;50.108;13.712;2023-11-22T03:04:28;3.65;;;2.13;;
59830;SDS011;45711;50.108;13.712;2023-11-22T03:06:53;2.42;;;1.73;;
59830;SDS011;45711;50.108;13.712;2023-11-22T03:09:20;2.65;;;1.88;;
59830;SDS011;45711;50.108;13.712;2023-11-22T03:11:48;3.03;;;2.20;;
59830;SDS011;45711;50.108;13.712;2023-11-22T03:14:13;3.42;;;2.30;;
59830;SDS011;45711;50.108;13.712;2023-11-22T03:16:42;3.10;;;1.98;;
59830;SDS011;45711;50.108;13.712;2023-11-22T03:19:07;3.42;;;2.35;;
59830;SDS011;45711;50.108;13.712;2023-11-22T03:21:33;2.75;;;2.20;;
59830;SDS011;45711;50.108;13.712;2023-11-22T03:24:00;3.97;;;2.42;;
59830;SDS011;45711;50.108;13.712;2023-11-22T03:26:28;3.35;;;2.00;;
59830;SDS011;45711;50.108;13.712;2023-11-22T03:28:54;3.42;;;2.35;;
59830;SDS011;45711;50.108;13.712;2023-11-22T03:31:20;3.63;;;2.03;;
59830;SDS011;45711;50.108;13.712;2023-11-22T03:33:47;2.97;;;2.20;;
59830;SDS011;45711;50.108;13.712;2023-11-22T03:36:13;3.55;;;2.65;;
59830;SDS011;45711;50.108;13.712;2023-11-22T03:38:42;3.78;;;2.63;;
59830;SDS011;45711;50.108;13.712;2023-11-22T03:41:08;4.75;;;2.63;;
59830;SDS011;45711;50.108;13.712;2023-11-22T03:43:34;4.70;;;3.03;;
59830;SDS011;45711;50.108;13.712;2023-11-22T03:46:00;4.55;;;3.05;;
59830;SDS011;45711;50.108;13.712;2023-11-22T03:48:25;5.18;;;3.58;;
59830;SDS011;45711;50.108;13.712;2023-11-22T03:50:52;4.53;;;2.28;;
59830;SDS011;45711;50.108;13.712;2023-11-22T03:53:18;6.35;;;4.00;;
59830;SDS011;45711;50.108;13.712;2023-11-22T03:55:46;7.47;;;4.43;;
59830;SDS011;45711;50.108;13.712;2023-11-22T03:58:12;6.15;;;3.95;;
59830;SDS011;45711;50.108;13.712;2023-11-22T04:00:37;5.43;;;3.25;;
59830;SDS011;45711;50.108;13.712;2023-11-22T04:03:03;6.72;;;4.28;;
59830;SDS011;45711;50.108;13.712;2023-11-22T04:05:29;4.65;;;3.35;;
59830;SDS011;45711;50.108;13.712;2023-11-22T04:07:56;7.07;;;4.88;;
59830;SDS011;45711;50.108;13.712;2023-11-22T04:10:21;11.45;;;6.05;;
59830;SDS011;45711;50.108;13.712;2023-11-22T04:12:47;10.85;;;7.05;;
59830;SDS011;45711;50.108;13.712;2023-11-22T04:15:13;12.20;;;7.10;;
59830;SDS011;45711;50.108;13.712;2023-11-22T04:17:39;12.05;;;7.40;;
59830;SDS011;45711;50.108;13.712;2023-11-22T04:20:06;11.20;;;6.82;;
59830;SDS011;45711;50.108;13.712;2023-11-22T04:22:39;12.52;;;8.05;;
59830;SDS011;45711;50.108;13.712;2023-11-22T04:25:07;12.75;;;7.75;;
59830;SDS011;45711;50.108;13.712;2023-11-22T04:27:38;11.05;;;7.20;;
59830;SDS011;45711;50.108;13.712;2023-11-22T04:30:05;16.73;;;9.85;;
59830;SDS011;45711;50.108;13.712;2023-11-22T04:32:33;12.98;;;7.35;;
59830;SDS011;45711;50.108;13.712;2023-11-22T04:34:59;22.38;;;9.45;;
59830;SDS011;45711;50.108;13.712;2023-11-22T04:37:24;16.45;;;10.02;;
59830;SDS011;45711;50.108;13.712;2023-11-22T04:39:51;18.20;;;10.27;;
59830;SDS011;45711;50.108;13.712;2023-11-22T04:42:19;22.63;;;9.95;;
59830;SDS011;45711;50.108;13.712;2023-11-22T04:44:44;18.05;;;10.15;;
59830;SDS011;45711;50.108;13.712;2023-11-22T04:47:11;18.90;;;10.68;;
59830;SDS011;45711;50.108;13.712;2023-11-22T04:49:37;17.27;;;10.82;;
59830;SDS011;45711;50.108;13.712;2023-11-22T04:52:02;26.42;;;10.40;;
59830;SDS011;45711;50.108;13.712;2023-11-22T04:54:29;20.60;;;11.55;;
59830;SDS011;45711;50.108;13.712;2023-11-22T04:56:54;13.98;;;8.55;;
59830;SDS011;45711;50.108;13.712;2023-11-22T04:59:22;21.00;;;11.38;;
59830;SDS011;45711;50.108;13.712;2023-11-22T05:01:47;20.73;;;10.57;;
59830;SDS011;45711;50.108;13.712;2023-11-22T05:04:15;14.73;;;8.30;;
59830;SDS011;45711;50.108;13.712;2023-11-22T05:06:40;19.85;;;11.48;;
59830;SDS011;45711;50.108;13.712;2023-11-22T05:09:08;17.45;;;10.27;;
59830;SDS011;45711;50.108;13.712;2023-11-22T05:11:36;20.67;;;11.30;;
59830;SDS011;45711;50.108;13.712;2023-11-22T05:14:01;18.85;;;11.20;;
59830;SDS011;45711;50.108;13.712;2023-11-22T05:16:28;21.40;;;11.68;;
59830;SDS011;45711;50.108;13.712;2023-11-22T05:18:54;18.48;;;10.57;;
59830;SDS011;45711;50.108;13.712;2023-11-22T05:21:19;20.85;;;11.13;;
59830;SDS011;45711;50.108;13.712;2023-11-22T05:23:45;19.88;;;10.25;;
59830;SDS011;45711;50.108;13.712;2023-11-22T05:26:10;15.95;;;8.43;;
59830;SDS011;45711;50.108;13.712;2023-11-22T05:28:36;16.70;;;9.40;;
59830;SDS011;45711;50.108;13.712;2023-11-22T05:31:02;19.10;;;11.02;;
59830;SDS011;45711;50.108;13.712;2023-11-22T05:33:29;16.10;;;9.68;;
59830;SDS011;45711;50.108;13.712;2023-11-22T05:35:54;20.25;;;11.45;;
59830;SDS011;45711;50.108;13.712;2023-11-22T05:38:20;19.50;;;11.10;;
59830;SDS011;45711;50.108;13.712;2023-11-22T05:40:45;18.40;;;10.48;;
59830;SDS011;45711;50.108;13.712;2023-11-22T05:43:11;17.25;;;10.32;;
59830;SDS011;45711;50.108;13.712;2023-11-22T05:45:37;20.77;;;10.25;;
59830;SDS011;45711;50.108;13.712;2023-11-22T05:48:02;18.40;;;11.52;;
59830;SDS011;45711;50.108;13.712;2023-11-22T05:50:30;19.85;;;11.63;;
59830;SDS011;45711;50.108;13.712;2023-11-22T05:52:55;19.45;;;10.65;;
59830;SDS011;45711;50.108;13.712;2023-11-22T05:55:21;21.65;;;11.73;;
59830;SDS011;45711;50.108;13.712;2023-11-22T05:57:48;19.25;;;11.02;;
59830;SDS011;45711;50.108;13.712;2023-11-22T06:00:13;18.38;;;11.07;;
59830;SDS011;45711;50.108;13.712;2023-11-22T06:02:40;20.45;;;12.32;;
59830;SDS011;45711;50.108;13.712;2023-11-22T06:05:06;19.42;;;9.80;;
59830;SDS011;45711;50.108;13.712;2023-11-22T06:07:34;19.08;;;11.30;;
59830;SDS011;45711;50.108;13.712;2023-11-22T06:09:59;18.00;;;11.30;;
59830;SDS011;45711;50.108;13.712;2023-11-22T06:12:28;17.42;;;9.55;;
59830;SDS011;45711;50.108;13.712;2023-11-22T06:14:53;18.17;;;10.98;;
59830;SDS011;45711;50.108;13.712;2023-11-22T06:17:19;20.02;;;10.60;;
59830;SDS011;45711;50.108;13.712;2023-11-22T06:19:44;15.00;;;8.25;;
59830;SDS011;45711;50.108;13.712;2023-11-22T06:22:10;18.15;;;9.55;;
59830;SDS011;45711;50.108;13.712;2023-11-22T06:24:38;16.63;;;9.40;;
59830;SDS011;45711;50.108;13.712;2023-11-22T06:27:03;22.92;;;10.38;;
59830;SDS011;45711;50.108;13.712;2023-11-22T06:29:30;16.30;;;10.98;;
59830;SDS011;45711;50.108;13.712;2023-11-22T06:31:56;22.30;;;12.63;;
59830;SDS011;45711;50.108;13.712;2023-11-22T06:34:22;21.17;;;11.82;;
59830;SDS011;45711;50.108;13.712;2023-11-22T06:36:47;19.58;;;11.48;;
59830;SDS011;45711;50.108;13.712;2023-11-22T06:39:13;18.90;;;10.68;;
59830;SDS011;45711;50.108;13.712;2023-11-22T06:41:42;17.23;;;9.80;;
59830;SDS011;45711;50.108;13.712;2023-11-22T06:44:10;18.10;;;11.27;;
59830;SDS011;45711;50.108;13.712;2023-11-22T06:46:35;20.90;;;10.98;;
59830;SDS011;45711;50.108;13.712;2023-11-22T06:49:01;16.20;;;9.27;;
59830;SDS011;45711;50.108;13.712;2023-11-22T06:51:26;16.55;;;9.85;;
59830;SDS011;45711;50.108;13.712;2023-11-22T06:53:52;21.90;;;10.73;;
59830;SDS011;45711;50.108;13.712;2023-11-22T06:56:19;16.70;;;9.10;;
59830;SDS011;45711;50.108;13.712;2023-11-22T06:58:46;18.75;;;10.77;;
59830;SDS011;45711;50.108;13.712;2023-11-22T07:01:12;19.50;;;10.60;;
59830;SDS011;45711;50.108;13.712;2023-11-22T07:03:37;17.13;;;9.77;;
59830;SDS011;45711;50.108;13.712;2023-11-22T07:06:03;18.17;;;10.57;;
59830;SDS011;45711;50.108;13.712;2023-11-22T07:08:29;18.17;;;10.85;;
59830;SDS011;45711;50.108;13.712;2023-11-22T07:10:55;17.25;;;10.25;;
59830;SDS011;45711;50.108;13.712;2023-11-22T07:13:21;17.63;;;10.45;;
59830;SDS011;45711;50.108;13.712;2023-11-22T07:15:48;18.73;;;9.75;;
59830;SDS011;45711;50.108;13.712;2023-11-22T07:18:16;17.02;;;9.93;;
59830;SDS011;45711;50.108;13.712;2023-11-22T07:20:41;20.90;;;10.32;;
59830;SDS011;45711;50.108;13.712;2023-11-22T07:23:07;15.68;;;8.65;;
59830;SDS011;45711;50.108;13.712;2023-11-22T07:25:38;15.60;;;7.97;;
59830;SDS011;45711;50.108;13.712;2023-11-22T07:28:03;21.23;;;10.95;;
59830;SDS011;45711;50.108;13.712;2023-11-22T07:30:29;20.55;;;11.57;;
59830;SDS011;45711;50.108;13.712;2023-11-22T07:32:57;20.23;;;10.57;;
59830;SDS011;45711;50.108;13.712;2023-11-22T07:35:24;15.38;;;8.75;;
59830;SDS011;45711;50.108;13.712;2023-11-22T07:37:51;24.42;;;10.93;;
59830;SDS011;45711;50.108;13.712;2023-11-22T07:40:17;20.17;;;10.65;;
59830;SDS011;45711;50.108;13.712;2023-11-22T07:42:44;17.00;;;9.00;;
59830;SDS011;45711;50.108;13.712;2023-11-22T07:45:10;32.63;;;15.55;;
59830;SDS011;45711;50.108;13.712;2023-11-22T07:47:38;37.17;;;17.67;;
59830;SDS011;45711;50.108;13.712;2023-11-22T07:50:10;87.22;;;35.88;;
59830;SDS011;45711;50.108;13.712;2023-11-22T07:52:38;17.77;;;8.05;;
59830;SDS011;45711;50.108;13.712;2023-11-22T07:55:06;24.75;;;11.32;;
59830;SDS011;45711;50.108;13.712;2023-11-22T07:57:33;20.17;;;10.43;;
59830;SDS011;45711;50.108;13.712;2023-11-22T07:59:59;23.05;;;12.40;;
59830;SDS011;45711;50.108;13.712;2023-11-22T08:02:26;22.05;;;11.07;;
59830;SDS011;45711;50.108;13.712;2023-11-22T08:04:51;20.33;;;10.35;;
59830;SDS011;45711;50.108;13.712;2023-11-22T08:07:19;23.02;;;11.02;;
59830;SDS011;45711;50.108;13.712;2023-11-22T08:09:46;23.40;;;10.55;;
59830;SDS011;45711;50.108;13.712;2023-11-22T08:12:12;19.33;;;10.25;;
59830;SDS011;45711;50.108;13.712;2023-11-22T08:14:38;18.58;;;10.38;;
59830;SDS011;45711;50.108;13.712;2023-11-22T08:17:05;24.15;;;10.52;;
59830;SDS011;45711;50.108;13.712;2023-11-22T08:19:33;19.77;;;10.93;;
59830;SDS011;45711;50.108;13.712;2023-11-22T08:21:59;23.75;;;11.02;;
59830;SDS011;45711;50.108;13.712;2023-11-22T08:24:26;18.15;;;10.80;;
59830;SDS011;45711;50.108;13.712;2023-11-22T08:26:51;24.20;;;11.57;;
59830;SDS011;45711;50.108;13.712;2023-11-22T08:29:20;22.25;;;11.70;;
59830;SDS011;45711;50.108;13.712;2023-11-22T08:31:46;21.83;;;11.20;;
59830;SDS011;45711;50.108;13.712;2023-11-22T08:34:12;21.27;;;11.35;;
59830;SDS011;45711;50.108;13.712;2023-11-22T08:36:38;17.65;;;10.27;;
59830;SDS011;45711;50.108;13.712;2023-11-22T08:39:03;23.67;;;12.02;;
59830;SDS011;45711;50.108;13.712;2023-11-22T08:41:31;23.58;;;10.73;;
59830;SDS011;45711;50.108;13.712;2023-11-22T08:43:58;20.70;;;11.55;;
59830;SDS011;45711;50.108;13.712;2023-11-22T08:46:25;18.60;;;10.77;;
59830;SDS011;45711;50.108;13.712;2023-11-22T08:48:51;23.83;;;11.05;;
59830;SDS011;45711;50.108;13.712;2023-11-22T08:51:16;21.42;;;11.15;;
59830;SDS011;45711;50.108;13.712;2023-11-22T08:53:43;22.48;;;11.10;;
59830;SDS011;45711;50.108;13.712;2023-11-22T08:56:11;26.98;;;12.95;;
59830;SDS011;45711;50.108;13.712;2023-11-22T08:58:39;22.42;;;11.15;;
59830;SDS011;45711;50.108;13.712;2023-11-22T09:01:05;20.90;;;11.15;;
59830;SDS011;45711;50.108;13.712;2023-11-22T09:03:47;19.30;;;11.07;;
59830;SDS011;45711;50.108;13.712;2023-11-22T09:06:12;22.95;;;11.52;;
59830;SDS011;45711;50.108;13.712;2023-11-22T09:08:38;20.60;;;11.25;;
59830;SDS011;45711;50.108;13.712;2023-11-22T09:11:04;24.58;;;10.98;;
59830;SDS011;45711;50.108;13.712;2023-11-22T09:16:40;16.50;;;9.55;;
59830;SDS011;45711;50.108;13.712;2023-11-22T09:19:06;20.13;;;10.80;;
59830;SDS011;45711;50.108;13.712;2023-11-22T09:21:32;24.77;;;11.13;;
59830;SDS011;45711;50.108;13.712;2023-11-22T09:26:53;25.20;;;11.65;;
59830;SDS011;45711;50.108;13.712;2023-11-22T09:29:27;22.23;;;11.50;;
59830;SDS011;45711;50.108;13.712;2023-11-22T09:31:57;20.92;;;10.50;;
59830;SDS011;45711;50.108;13.712;2023-11-22T09:34:23;21.25;;;10.30;;
59830;SDS011;45711;50.108;13.712;2023-11-22T09:36:49;20.60;;;10.80;;
59830;SDS011;45711;50.108;13.712;2023-11-22T09:39:20;20.42;;;10.60;;
59830;SDS011;45711;50.108;13.712;2023-11-22T09:41:46;25.25;;;10.77;;
59830;SDS011;45711;50.108;13.712;2023-11-22T09:44:13;19.70;;;10.63;;
59830;SDS011;45711;50.108;13.712;2023-11-22T09:46:39;20.23;;;10.80;;
59830;SDS011;45711;50.108;13.712;2023-11-22T09:52:18;20.73;;;11.40;;
59830;SDS011;45711;50.108;13.712;2023-11-22T09:54:54;22.70;;;10.88;;
59830;SDS011;45711;50.108;13.712;2023-11-22T09:57:20;20.40;;;11.25;;
59830;SDS011;45711;50.108;13.712;2023-11-22T09:59:49;18.08;;;9.68;;
59830;SDS011;45711;50.108;13.712;2023-11-22T10:02:27;22.52;;;11.20;;
59830;SDS011;45711;50.108;13.712;2023-11-22T10:04:55;20.83;;;10.75;;
59830;SDS011;45711;50.108;13.712;2023-11-22T10:07:21;19.60;;;10.50;;
59830;SDS011;45711;50.108;13.712;2023-11-22T10:09:47;20.38;;;11.73;;
59830;SDS011;45711;50.108;13.712;2023-11-22T10:12:14;19.45;;;10.63;;
59830;SDS011;45711;50.108;13.712;2023-11-22T10:14:45;18.15;;;9.50;;
59830;SDS011;45711;50.108;13.712;2023-11-22T10:17:11;20.80;;;9.68;;
59830;SDS011;45711;50.108;13.712;2023-11-22T10:19:41;25.30;;;11.55;;
59830;SDS011;45711;50.108;13.712;2023-11-22T10:22:11;23.33;;;11.05;;
59830;SDS011;45711;50.108;13.712;2023-11-22T10:24:42;27.65;;;14.15;;
59830;SDS011;45711;50.108;13.712;2023-11-22T10:27:12;34.10;;;15.73;;
59830;SDS011;45711;50.108;13.712;2023-11-22T10:29:37;38.60;;;17.05;;
59830;SDS011;45711;50.108;13.712;2023-11-22T10:32:04;23.80;;;12.48;;
59830;SDS011;45711;50.108;13.712;2023-11-22T10:34:32;23.45;;;12.70;;
59830;SDS011;45711;50.108;13.712;2023-11-22T10:37:02;23.33;;;11.98;;
59830;SDS011;45711;50.108;13.712;2023-11-22T10:39:30;23.23;;;11.80;;
59830;SDS011;45711;50.108;13.712;2023-11-22T10:41:56;20.92;;;11.77;;
59830;SDS011;45711;50.108;13.712;2023-11-22T10:44:23;24.55;;;12.85;;
59830;SDS011;45711;50.108;13.712;2023-11-22T10:46:49;22.02;;;11.93;;
59830;SDS011;45711;50.108;13.712;2023-11-22T10:49:17;20.60;;;10.93;;
59830;SDS011;45711;50.108;13.712;2023-11-22T10:51:43;24.35;;;12.38;;
59830;SDS011;45711;50.108;13.712;2023-11-22T10:54:12;22.75;;;11.27;;
59830;SDS011;45711;50.108;13.712;2023-11-22T10:56:40;18.58;;;10.38;;
59830;SDS011;45711;50.108;13.712;2023-11-22T10:59:10;24.88;;;12.90;;
59830;SDS011;45711;50.108;13.712;2023-11-22T11:01:38;22.92;;;12.27;;
59830;SDS011;45711;50.108;13.712;2023-11-22T11:04:11;25.83;;;12.18;;
59830;SDS011;45711;50.108;13.712;2023-11-22T11:06:44;24.65;;;12.30;;
59830;SDS011;45711;50.108;13.712;2023-11-22T11:09:16;23.65;;;12.43;;
59830;SDS011;45711;50.108;13.712;2023-11-22T11:11:47;23.55;;;13.00;;
59830;SDS011;45711;50.108;13.712;2023-11-22T11:14:13;23.63;;;11.43;;
59830;SDS011;45711;50.108;13.712;2023-11-22T11:16:40;25.70;;;12.18;;
59830;SDS011;45711;50.108;13.712;2023-11-22T11:19:12;21.83;;;11.35;;
59830;SDS011;45711;50.108;13.712;2023-11-22T11:21:39;25.55;;;12.23;;
59830;SDS011;45711;50.108;13.712;2023-11-22T11:24:05;20.15;;;10.60;;
59830;SDS011;45711;50.108;13.712;2023-11-22T11:26:32;26.80;;;10.32;;
59830;SDS011;45711;50.108;13.712;2023-11-22T11:29:01;20.73;;;10.85;;
59830;SDS011;45711;50.108;13.712;2023-11-22T11:31:30;21.58;;;11.98;;
59830;SDS011;45711;50.108;13.712;2023-11-22T11:33:57;23.42;;;12.02;;
59830;SDS011;45711;50.108;13.712;2023-11-22T11:36:25;26.17;;;11.65;;
59830;SDS011;45711;50.108;13.712;2023-11-22T11:38:51;23.55;;;12.27;;
59830;SDS011;45711;50.108;13.712;2023-11-22T11:41:22;24.65;;;12.40;;
59830;SDS011;45711;50.108;13.712;2023-11-22T11:43:51;28.42;;;12.40;;
59830;SDS011;45711;50.108;13.712;2023-11-22T11:46:18;23.20;;;11.65;;
59830;SDS011;45711;50.108;13.712;2023-11-22T11:48:44;22.90;;;11.30;;
59830;SDS011;45711;50.108;13.712;2023-11-22T11:51:13;23.88;;;11.52;;
59830;SDS011;45711;50.108;13.712;2023-11-22T11:53:39;22.83;;;11.98;;
59830;SDS011;45711;50.108;13.712;2023-11-22T11:56:04;22.17;;;11.77;;
59830;SDS011;45711;50.108;13.712;2023-11-22T11:58:32;20.95;;;12.07;;
59830;SDS011;45711;50.108;13.712;2023-11-22T12:00:57;24.92;;;12.35;;
59830;SDS011;45711;50.108;13.712;2023-11-22T12:03:25;20.55;;;11.75;;
59830;SDS011;45711;50.108;13.712;2023-11-22T12:05:51;23.20;;;12.32;;
59830;SDS011;45711;50.108;13.712;2023-11-22T12:08:16;21.95;;;11.38;;
59830;SDS011;45711;50.108;13.712;2023-11-22T12:10:43;22.88;;;11.95;;
59830;SDS011;45711;50.108;13.712;2023-11-22T12:13:13;24.35;;;11.75;;
59830;SDS011;45711;50.108;13.712;2023-11-22T12:15:44;19.55;;;10.80;;
59830;SDS011;45711;50.108;13.712;2023-11-22T12:18:10;23.73;;;11.82;;
59830;SDS011;45711;50.108;13.712;2023-11-22T12:20:38;23.42;;;13.07;;
59830;SDS011;45711;50.108;13.712;2023-11-22T12:23:04;19.67;;;10.90;;
59830;SDS011;45711;50.108;13.712;2023-11-22T12:25:32;23.75;;;11.70;;
59830;SDS011;45711;50.108;13.712;2023-11-22T12:27:58;25.38;;;12.38;;
59830;SDS011;45711;50.108;13.712;2023-11-22T12:30:30;28.10;;;13.35;;
59830;SDS011;45711;50.108;13.712;2023-11-22T12:32:59;21.98;;;11.90;;
59830;SDS011;45711;50.108;13.712;2023-11-22T12:35:27;23.67;;;10.40;;
59830;SDS011;45711;50.108;13.712;2023-11-22T12:37:57;24.15;;;11.90;;
59830;SDS011;45711;50.108;13.712;2023-11-22T12:40:23;22.52;;;11.60;;
59830;SDS011;45711;50.108;13.712;2023-11-22T12:42:49;24.38;;;11.40;;
59830;SDS011;45711;50.108;13.712;2023-11-22T12:45:19;23.00;;;11.30;;
59830;SDS011;45711;50.108;13.712;2023-11-22T12:47:46;20.88;;;11.25;;
59830;SDS011;45711;50.108;13.712;2023-11-22T12:53:08;26.67;;;12.73;;
59830;SDS011;45711;50.108;13.712;2023-11-22T12:55:35;19.80;;;11.52;;
59830;SDS011;45711;50.108;13.712;2023-11-22T12:58:01;23.83;;;11.55;;
59830;SDS011;45711;50.108;13.712;2023-11-22T13:00:28;21.95;;;11.77;;
59830;SDS011;45711;50.108;13.712;2023-11-22T13:02:54;26.27;;;12.48;;
59830;SDS011;45711;50.108;13.712;2023-11-22T13:05:20;20.75;;;10.82;;
59830;SDS011;45711;50.108;13.712;2023-11-22T13:07:46;23.35;;;11.38;;
59830;SDS011;45711;50.108;13.712;2023-11-22T13:10:13;22.95;;;12.38;;
59830;SDS011;45711;50.108;13.712;2023-11-22T13:12:41;18.80;;;11.27;;
59830;SDS011;45711;50.108;13.712;2023-11-22T13:15:09;21.88;;;11.13;;
59830;SDS011;45711;50.108;13.712;2023-11-22T13:17:36;21.00;;;10.80;;
59830;SDS011;45711;50.108;13.712;2023-11-22T13:20:02;23.55;;;11.25;;
59830;SDS011;45711;50.108;13.712;2023-11-22T13:22:33;20.95;;;10.85;;
59830;SDS011;45711;50.108;13.712;2023-11-22T13:24:58;19.63;;;10.30;;
59830;SDS011;45711;50.108;13.712;2023-11-22T13:27:26;22.90;;;10.70;;
59830;SDS011;45711;50.108;13.712;2023-11-22T13:29:52;19.63;;;10.63;;
59830;SDS011;45711;50.108;13.712;2023-11-22T13:32:18;21.23;;;10.30;;
59830;SDS011;45711;50.108;13.712;2023-11-22T13:34:43;19.50;;;10.30;;
59830;SDS011;45711;50.108;13.712;2023-11-22T13:37:09;26.60;;;10.43;;
59830;SDS011;45711;50.108;13.712;2023-11-22T13:39:35;24.08;;;10.60;;
59830;SDS011;45711;50.108;13.712;2023-11-22T13:42:01;20.10;;;10.70;;
59830;SDS011;45711;50.108;13.712;2023-11-22T13:44:28;19.90;;;10.35;;
59830;SDS011;45711;50.108;13.712;2023-11-22T13:46:53;18.73;;;11.00;;
59830;SDS011;45711;50.108;13.712;2023-11-22T13:49:19;18.98;;;11.25;;
59830;SDS011;45711;50.108;13.712;2023-11-22T13:51:49;17.92;;;9.20;;
59830;SDS011;45711;50.108;13.712;2023-11-22T13:54:15;22.92;;;11.57;;
59830;SDS011;45711;50.108;13.712;2023-11-22T13:56:42;21.23;;;11.15;;
59830;SDS011;45711;50.108;13.712;2023-11-22T13:59:10;22.55;;;10.20;;
59830;SDS011;45711;50.108;13.712;2023-11-22T14:01:37;21.55;;;10.95;;
59830;SDS011;45711;50.108;13.712;2023-11-22T14:04:05;15.98;;;8.52;;
59830;SDS011;45711;50.108;13.712;2023-11-22T14:06:31;20.85;;;10.70;;
59830;SDS011;45711;50.108;13.712;2023-11-22T14:08:57;21.00;;;10.60;;
59830;SDS011;45711;50.108;13.712;2023-11-22T14:11:22;20.67;;;11.02;;
59830;SDS011;45711;50.108;13.712;2023-11-22T14:13:48;20.48;;;10.13;;
59830;SDS011;45711;50.108;13.712;2023-11-22T14:16:16;18.83;;;10.30;;
59830;SDS011;45711;50.108;13.712;2023-11-22T14:18:43;19.63;;;11.50;;
59830;SDS011;45711;50.108;13.712;2023-11-22T14:21:08;23.27;;;10.75;;
59830;SDS011;45711;50.108;13.712;2023-11-22T14:23:37;21.23;;;10.43;;
59830;SDS011;45711;50.108;13.712;2023-11-22T14:26:03;22.60;;;11.05;;
59830;SDS011;45711;50.108;13.712;2023-11-22T14:28:28;21.75;;;11.18;;